Řízení letového provozu České republiky  
Aktualizace dat:  27.02.2024 14:26:40 UTC English version
   METEO Zobrazení stránky:  27.02.2024 14:26:33 UTC  
vysvětlivky
METAR EDAC 271420Z 32008KT 3000 OVC006 04/03 Q1015=
METAR EDDB 271420Z AUTO 34009KT 9999 OVC014 06/03 Q1016 TEMPO BKN015=
METAR EDDC 271420Z AUTO 33004KT 280V020 1000 0900 R22/1600U BCFG OVC001 04/04 Q1014 TEMPO 1500 BR=
METAR EDDE 271420Z AUTO 03011KT 9999 OVC012 OVC023 05/02 Q1015 NOSIG=
METAR EDDF 271420Z AUTO 02012KT CAVOK 12/04 Q1013 NOSIG=
METAR EDDM 271420Z AUTO 02005KT 9999 FEW017 08/04 Q1010 NOSIG=
METAR EDDN 271420Z AUTO 36010KT 9999 SCT026 10/04 Q1011 NOSIG=
METAR EDDP 271420Z AUTO 34012KT 6000 OVC004 04/03 Q1016 NOSIG=
METAR EDQM 271420Z 02009KT 0450 R26/0900N FG OVC001 02/02 Q1013=
METAR EPBY 271400Z 05004KT 5000 BR OVC004 08/07 Q1014=
METAR EPGD 271400Z 36007KT 340V040 0250 R29/0450N FG VV001 04/04 Q1014=
METAR EPKK 271400Z 06004KT 030V090 CAVOK 17/08 Q1012=
METAR EPKT 271400Z 13004KT 040V190 CAVOK 17/06 Q1012=
METAR EPLB 271400Z 18004KT 9999 FEW029 16/08 Q1015=
METAR EPLL 271400Z 27004KT 230V300 9999 FEW049 16/07 Q1013=
METAR EPMO 271400Z 16005KT 120V190 CAVOK 16/08 Q1013=
METAR EPPO 271400Z 03003KT 360V100 4500 BR OVC004 08/07 Q1014=
METAR EPRZ 271400Z 18007KT CAVOK 17/05 Q1014=
METAR EPWA 271400Z 17004KT 130V210 CAVOK 16/07 Q1013 NOSIG=
METAR EPWR 271400Z 31008KT 3000 BR OVC003 06/06 Q1014=
METAR LHBP 271400Z 10005KT CAVOK 16/08 Q1013 NOSIG=
METAR LHPR 271345Z AUTO 13009KT 100V160 CAVOK 15/09 Q1013 NOSIG=
METAR LHSM 271345Z AUTO VRB01KT CAVOK 12/08 Q1013 NOSIG=
METAR LKBC 271430Z AUTO 27004KT 210V310 //// // SCT017 OVC120 08/05 Q1011=
SPECI LKCR 271413Z AUTO 32004KT 4600 R06///// BR FEW006 SCT043 BKN220 06/04 Q1012=
METAR LKCS 271400Z AUTO 33003KT 270V360 9999 OVC016/// 06/03 Q1011=
METAR LKCV 271400Z VRB02KT 4000 BR BKN006 05/03 Q1012 NOSIG RMK YLO YLO=
METAR COR LKKB 271400Z 34004KT 9000 FEW012 SCT090 BKN130 08/04 Q1012 NOSIG RMK BLU BLU=
METAR LKKU 271400Z 15013KT 9999 FEW037 15/08 Q1012=
METAR LKKV 271400Z 04006KT 9999 SCT019 SCT023 08/03 Q1012=
METAR LKLN 271430Z AUTO 05006KT 360V090 9999 // FEW130 BKN190 09/04 Q1012=
METAR LKMT 271400Z 23007KT CAVOK 16/07 Q1012 NOSIG=
METAR LKNA 271400Z 13012KT 100V160 9999 SCT023 BKN160 13/07 Q1011 NOSIG RMK BLU BLU=
METAR LKPD 271400Z 29004KT 220V310 4500 BR BKN007 06/04 Q1012 NOSIG RMK GRN GRN=
METAR LKPJ 271330Z AUTO 14009KT 9999 // NCD 16/08 Q1012=
METAR LKPR 271400Z 02006KT 9000 SCT012 07/04 Q1012 NOSIG=
METAR LKTB 271400Z 13011KT 9999 FEW033 14/08 Q1011 NOSIG=
METAR LKTH 271330Z AUTO 18006KT 090V250 9999 SCT023 SCT037 12/07 Q1012=
METAR LKVO NIL
METAR LOWG 271420Z AUTO VRB01KT 9999 FEW050 OVC060 11/04 Q1012 NOSIG=
METAR LOWI 271420Z 11005KT 060V190 9999 FEW050 13/03 Q1007 NOSIG=
METAR LOWK 271420Z AUTO VRB01KT 9999 -DZ FEW044 SCT046 BKN050 08/03 Q1013 NOSIG=
METAR LOWL 271420Z AUTO VRB02KT CAVOK 09/05 Q1010 NOSIG=
METAR LOWS 271420Z VRB02KT 9999 FEW010 BKN014 06/03 Q1010 TEMPO BKN015=
METAR LOWW 271420Z 14015KT 9999 -RA NSC 13/08 Q1011 NOSIG=
METAR LOXT 271350Z 12014KT 50KM FEW030CU BKN170AC 15/06 Q1010 NOSIG RMK WIND INFO EST/BKN=
METAR LOXZ 271420Z VRB02KT 9999 -RA FEW028 SCT035 BKN045 09/03 Q1012 NOSIG=
METAR LZIB 271400Z 13009KT 9999 FEW028 14/09 Q1012 NOSIG=
METAR LZKZ 271400Z 21008KT 180V240 CAVOK 17/05 Q1015 NOSIG=
METAR LZMC 271400Z 14010KT 8000 FEW020 OVC080 13/08 Q1012=
METAR LZPP 271400Z 18006KT 130V220 CAVOK 15/08 Q1012=
METAR LZSL 271400Z 11006KT 9999 FEW040 OVC130 15/06 Q1014=
METAR LZTT 271400Z VRB02KT 9999 FEW046 12/06 Q1014 NOSIG=
METAR LZZI 271400Z 13008KT 110V170 9999 FEW043 16/07 Q1013=